Shady Dale, Georgia
Current Conditions -  °F | °C
As of 4:15 PM on Sunday 23 Nov 2014 (Local Time) from KCVC Reporting Station
Light Rain Light Rain  
Wind Chill: 54°   Ceiling: 400
Heat Index: 54°   Visibility: 3mi
Dew Point: 54°   Wind: 10mph
Humidity: 100%   Direction: 90°E
Pressure: 29.74"   Gusts: NA
Location:  33.4°N, 83.59°W
Report Text: KCVC 232115Z AUTO 09009KT 3SM -RA OVC004 12/12 A2974 RMK AO2 LTG DSNT SE
Loading
Personal Weather Stations






























Interactive Weather Map New forecast layout! Learn more

10-Day Weather Forecast

Advertisements
Track Severe Weather on mobile